Nearby METAR Reports

 

KTIW - Tacoma, Washington, USA
Distance from station: ESE 5mi, 8km
Updated: Mon, 25-Jan-2021 4:53am PST
Clear
Clear
 Wind from SSW
Wind: SSW 14 mph , 22 km/h
Temperature: 37°F , 3°C
Wind Chill: 28°F , -2°C
Dew Point: 32°F , 0°C
Humidity: 81%
Barometer: 29.78 inHg , 1008.5 hPa
Clouds: Clear
Visibility: 10 miles , 16 km
2021/01/25 12:53 KTIW 251253Z AUTO 20012KT 10SM CLR 03/00 A2978 RMK AO2 SLP088 T00280000
KPWT - Bremerton Ntnl, Washington, USA
Distance from station: NNW 14mi, 23km
Updated: Mon, 25-Jan-2021 5:03am PST
Overcast
Overcast
 Wind from SW
Wind: SW 7 mph , 11 km/h
Temperature: 36°F , 2°C
Wind Chill: 30°F , -1°C
Dew Point: 36°F , 2°C
Humidity: 100%
Barometer: 29.77 inHg , 1008.1 hPa
Clouds: Overcast
Visibility: 10 miles , 16 km
Cloud details: Overcast 500 ft
2021/01/25 13:03 KPWT 251303Z AUTO 22006KT 10SM OVC005 02/02 A2977 RMK AO2 CIG 004V007 FZRANO $
 
KTCM - Tacoma/Mc Chord, Washington, USA
Distance from station: SE 16mi, 26km
Updated: Mon, 25-Jan-2021 4:58am PST
Clear
Clear
 Wind from S
Wind: S 10 mph , 17 km/h
Temperature: 34°F , 1°C
Wind Chill: 26°F , -3°C
Dew Point: 30°F , -1°C
Humidity: 87%
Barometer: 29.80 inHg , 1009.1 hPa
Clouds: Clear
Visibility: 10 miles , 16 km
2021/01/25 12:58 KTCM 251258Z AUTO 18009KT 10SM CLR 01/M01 A2980 RMK AO2 SLP098 T00061006 $
KGRF - Fort Lewis/Gray, Washington, USA
Distance from station: SSE 17mi, 27km
Updated: Mon, 25-Jan-2021 4:58am PST
Clear
Clear
 Wind from SSE
Wind: SSE 9 mph , 15 km/h
Temperature: 34°F , 1°C
Wind Chill: 27°F , -3°C
Dew Point: 34°F , 1°C
Humidity: 100%
Barometer: 29.79 inHg , 1008.8 hPa
Clouds: Clear
Visibility: 10 miles , 16 km
2021/01/25 12:58 KGRF 251258Z 15008KT 10SM CLR 01/01 A2979 RMK AO2A SLP094 T00070007 $
 
KSEA - Seattle/Metro, Washington, USA
Distance from station: ENE 19mi, 31km
Updated: Mon, 25-Jan-2021 4:53am PST
Mostly cloudy
Mostly cloudy
 Wind from S
Wind: S 14 mph , 22 km/h
Temperature: 39°F , 4°C
Wind Chill: 31°F , -1°C
Dew Point: 34°F , 1°C
Humidity: 81%
Barometer: 29.77 inHg , 1008.1 hPa
Clouds: Mostly cloudy
Visibility: 10 miles , 16 km
Cloud details: Mostly cloudy 2200 ft
2021/01/25 12:53 KSEA 251253Z 18012KT 10SM BKN022 04/01 A2977 RMK AO2 SLP090 T00390006
KSHN - Shelton, Washington, USA
Distance from station: WSW 22mi, 36km
Updated: Mon, 25-Jan-2021 5:34am PST
Mist, Few clouds
Mist, Few clouds
 Wind from NW
Wind: NW 3 mph , 6 km/h
Temperature: 28°F , -2°C
Dew Point: 28°F , -2°C
Humidity: 100%
Barometer: 29.77 inHg , 1008.1 hPa
Summary: Mist
Clouds: Few Clouds
Visibility: 1 3/4 miles , 2.8 km
Cloud details: Few Clouds 1400 ft
2021/01/25 13:34 KSHN 251334Z AUTO 31003KT 1 3/4SM BR FEW014 M02/M02 A2977 RMK AO2 I1000 T10171017
 
KPLU - Puyallup/Thun, Washington, USA
Distance from station: SE 23mi, 37km
Updated: Mon, 25-Jan-2021 5:35am PST
Mostly cloudy
Mostly cloudy
 Wind from calm
Wind: Calm
Temperature: 37°F , 3°C
Dew Point: 32°F , 0°C
Humidity: 81%
Barometer: 29.80 inHg , 1009.1 hPa
Clouds: Mostly cloudy
Visibility: 10 miles , 16 km
Cloud details: Mostly cloudy 3300 ft
Mostly cloudy 3900 ft
2021/01/25 13:35 KPLU 251335Z AUTO 00000KT 10SM BKN033 BKN039 03/00 A2980 RMK AO2
KBFI - Seattle/Boeing, Washington, USA
Distance from station: NE 24mi, 38km
Updated: Mon, 25-Jan-2021 4:53am PST
Overcast
Overcast
 Wind from S
Wind: S 8 mph , 13 km/h
Temperature: 39°F , 4°C
Wind Chill: 33°F , 1°C
Dew Point: 34°F , 1°C
Humidity: 81%
Barometer: 29.79 inHg , 1008.8 hPa
Clouds: Overcast
Visibility: 10 miles , 16 km
Cloud details: Overcast 2300 ft
2021/01/25 12:53 KBFI 251253Z 17007KT 10SM OVC023 04/01 A2979 RMK AO2 SLP087 T00440011
 
KRNT - Renton, Washington, USA
Distance from station: ENE 25mi, 41km
Updated: Mon, 25-Jan-2021 5:20am PST
Overcast
Overcast
 Wind from S
Wind: S 7 mph , 11 km/h
Temperature: 39°F , 4°C
Wind Chill: 34°F , 1°C
Dew Point: 32°F , 0°C
Humidity: 75%
Barometer: 29.79 inHg , 1008.8 hPa
Clouds: Overcast
Visibility: 10 miles , 16 km
Cloud details: Overcast 3000 ft
2021/01/25 13:20 KRNT 251320Z AUTO 18006KT 10SM OVC030 04/00 A2979 RMK AO2 T00440000
KOLM - Olympia, Washington, USA
Distance from station: SSW 26mi, 41km
Updated: Mon, 25-Jan-2021 5:16am PST
Mostly cloudy
Mostly cloudy
 Wind from SW
Wind: SW 7 mph , 11 km/h
Temperature: 34°F , 1°C
Wind Chill: 28°F , -2°C
Dew Point: 32°F , 0°C
Humidity: 93%
Barometer: 29.81 inHg , 1009.5 hPa
Clouds: Mostly cloudy
Visibility: 9 miles , 14 km
Cloud details: Few Clouds 600 ft
Partly cloudy 2300 ft
Mostly cloudy 3900 ft
2021/01/25 13:16 KOLM 251316Z AUTO 22006KT 9SM FEW006 SCT023 BKN039 01/00 A2981 RMK AO2 T00060000 $
 
KCLS - Chehalis Central, Washington, USA
Distance from station: SSW 45mi, 73km
Updated: Mon, 25-Jan-2021 5:35am PST
Mostly cloudy
Mostly cloudy
 Wind from varies
Wind: varies 6 mph , 9 km/h
Temperature: 36°F , 2°C
Wind Chill: 31°F , -1°C
Dew Point: 36°F , 2°C
Humidity: 100%
Barometer: 29.83 inHg , 1010.2 hPa
Clouds: Mostly cloudy
Visibility: 10 miles , 16 km
Cloud details: Few Clouds 800 ft
Partly cloudy 3900 ft
Mostly cloudy 4800 ft
2021/01/25 13:35 KCLS 251335Z AUTO VRB05KT 10SM FEW008 SCT039 BKN048 02/02 A2983 RMK AO2
KPAE - Everett, Washington, USA
Distance from station: NNE 46mi, 74km
Updated: Mon, 25-Jan-2021 4:53am PST
Overcast
Overcast
 Wind from SSE
Wind: SSE 10 mph , 17 km/h
Temperature: 37°F , 3°C
Wind Chill: 30°F , -1°C
Dew Point: 36°F , 2°C
Humidity: 93%
Barometer: 29.76 inHg , 1007.8 hPa
Clouds: Overcast
Visibility: 10 miles , 16 km
Cloud details: Overcast 1700 ft
2021/01/25 12:53 KPAE 251253Z AUTO 16009KT 10SM OVC017 03/02 A2976 RMK AO2 SLP082 T00330017